Time;durP1;ratioP1;P1;durP2;ratioP2;P2;SDS_P1;SDS_P2;PMS_P1;PMS_P2;Temp;Humidity;BMP_temperature;BMP_pressure;BME280_temperature;BME280_humidity;BME280_pressure;Samples;Min_cycle;Max_cycle;Signal;HPM_P1;HPM_P2
2021/12/12 00:01:14;;;;;;;35.25;13.63;;;5.00;90.90;;;;;;5050174;28;20059;-63
2021/12/12 00:03:47;;;;;;;24.00;12.20;;;5.00;90.90;;;;;;5049359;28;20040;-63
2021/12/12 00:06:21;;;;;;;25.05;13.25;;;5.00;90.80;;;;;;5049901;28;20499;-63
2021/12/12 00:08:52;;;;;;;35.55;17.23;;;5.00;90.80;;;;;;5050083;28;20045;-63
2021/12/12 00:11:21;;;;;;;30.70;13.40;;;5.10;90.80;;;;;;5048986;28;20534;-63
2021/12/12 00:14:00;;;;;;;27.60;13.55;;;5.00;90.70;;;;;;5048475;28;20465;-63
2021/12/12 00:16:26;;;;;;;30.35;14.63;;;5.00;90.70;;;;;;5048019;28;20567;-63
2021/12/12 00:18:52;;;;;;;27.83;13.82;;;5.00;90.80;;;;;;5049542;28;20468;-63
2021/12/12 00:21:19;;;;;;;28.08;13.88;;;5.00;90.70;;;;;;5049458;28;20029;-64
2021/12/12 00:23:45;;;;;;;26.90;13.90;;;5.00;90.80;;;;;;5049668;28;20045;-63
2021/12/12 00:26:10;;;;;;;31.20;12.27;;;5.10;90.70;;;;;;5049462;28;20382;-63
2021/12/12 00:28:39;;;;;;;31.85;14.02;;;5.00;90.70;;;;;;5046855;28;20041;-63
2021/12/12 00:31:10;;;;;;;26.48;13.60;;;5.10;90.70;;;;;;5049589;28;20041;-64
2021/12/12 00:33:38;;;;;;;33.13;14.75;;;5.10;90.80;;;;;;5048358;28;20048;-63
2021/12/12 00:36:04;;;;;;;30.55;15.20;;;5.00;90.70;;;;;;5048697;28;20171;-63
2021/12/12 00:38:33;;;;;;;22.65;13.25;;;5.10;90.70;;;;;;5048164;28;20045;-63
2021/12/12 00:41:07;;;;;;;29.45;13.38;;;5.10;90.70;;;;;;5049242;28;20459;-63
2021/12/12 00:43:37;;;;;;;31.63;13.45;;;5.10;90.80;;;;;;5048138;28;20121;-64
2021/12/12 00:46:06;;;;;;;28.98;12.30;;;5.00;91.00;;;;;;5047202;28;20392;-63
2021/12/12 00:48:34;;;;;;;27.35;13.00;;;5.00;90.90;;;;;;5031304;28;20122;-64
2021/12/12 00:51:03;;;;;;;26.20;13.07;;;5.00;90.90;;;;;;5047187;28;20172;-63
2021/12/12 00:53:29;;;;;;;24.25;13.93;;;5.10;91.00;;;;;;5047832;28;20044;-63
2021/12/12 00:55:55;;;;;;;40.03;16.23;;;5.10;91.00;;;;;;5046088;28;20114;-64
2021/12/12 00:58:22;;;;;;;25.63;12.52;;;5.10;90.90;;;;;;5049373;28;20115;-63
2021/12/12 01:00:56;;;;;;;30.45;13.20;;;5.10;90.80;;;;;;5048313;28;20433;-63
2021/12/12 01:03:26;;;;;;;32.58;12.63;;;5.10;90.90;;;;;;5049436;28;20044;-63
2021/12/12 01:05:54;;;;;;;30.70;13.55;;;5.10;90.90;;;;;;5048847;28;20049;-63
2021/12/12 01:08:20;;;;;;;25.40;13.68;;;5.10;90.90;;;;;;5048434;28;20041;-63
2021/12/12 01:11:13;;;;;;;27.38;13.85;;;5.20;90.80;;;;;;5046780;28;20056;-63
2021/12/12 01:13:39;;;;;;;27.92;13.32;;;5.20;90.90;;;;;;5048254;28;20045;-63
2021/12/12 01:16:22;;;;;;;29.60;13.60;;;5.20;90.90;;;;;;5047441;28;20045;-63
2021/12/12 01:18:53;;;;;;;24.15;12.57;;;5.10;91.00;;;;;;5048983;28;20162;-64
2021/12/12 01:21:29;;;;;;;33.10;13.73;;;5.10;91.30;;;;;;5047590;28;20075;-64
2021/12/12 01:23:59;;;;;;;37.42;14.45;;;5.20;91.10;;;;;;5040351;28;20485;-64
2021/12/12 01:26:28;;;;;;;28.48;12.32;;;5.20;91.10;;;;;;5046800;28;20037;-63
2021/12/12 01:28:55;;;;;;;29.80;12.95;;;5.20;91.10;;;;;;5047679;28;20051;-64
2021/12/12 01:31:28;;;;;;;33.38;12.25;;;5.20;91.10;;;;;;5048957;28;20052;-63
2021/12/12 01:34:10;;;;;;;33.70;12.23;;;5.20;91.10;;;;;;5047125;28;20041;-63
2021/12/12 01:37:05;;;;;;;27.55;11.98;;;5.30;91.20;;;;;;5047449;28;20040;-63
2021/12/12 01:39:34;;;;;;;23.23;12.95;;;5.20;91.40;;;;;;5048010;28;20155;-63
2021/12/12 01:42:20;;;;;;;33.42;12.52;;;5.20;91.80;;;;;;5047801;28;20036;-64
2021/12/12 01:44:58;;;;;;;23.35;12.02;;;5.20;91.70;;;;;;5048619;28;20045;-64
2021/12/12 01:47:55;;;;;;;25.42;11.93;;;5.20;91.60;;;;;;5046975;28;20319;-63
2021/12/12 01:50:38;;;;;;;32.95;12.88;;;5.30;91.50;;;;;;5047460;28;20057;-63
2021/12/12 01:53:09;;;;;;;30.55;12.23;;;5.30;91.50;;;;;;5047600;28;20070;-63
2021/12/12 01:55:51;;;;;;;29.02;12.52;;;5.20;91.90;;;;;;5048071;28;20067;-63
2021/12/12 01:58:22;;;;;;;31.70;11.85;;;5.20;91.80;;;;;;5047193;28;20045;-63
2021/12/12 02:00:52;;;;;;;30.55;11.80;;;5.30;91.70;;;;;;5048169;28;20040;-63
2021/12/12 02:03:22;;;;;;;31.02;11.73;;;5.30;91.80;;;;;;5048105;28;20037;-63
2021/12/12 02:05:49;;;;;;;24.98;11.45;;;5.30;91.80;;;;;;5048282;28;20076;-63
2021/12/12 02:08:18;;;;;;;29.08;12.13;;;5.30;91.60;;;;;;5048005;28;20033;-63
2021/12/12 02:10:52;;;;;;;27.85;11.52;;;5.40;91.60;;;;;;5048057;28;20033;-63
2021/12/12 02:13:20;;;;;;;26.33;10.82;;;5.40;91.60;;;;;;5045266;28;20045;-63
2021/12/12 02:15:48;;;;;;;28.80;10.90;;;5.40;91.50;;;;;;5047528;28;20151;-63
2021/12/12 02:18:17;;;;;;;25.35;11.88;;;5.40;91.60;;;;;;5047264;28;20044;-63
2021/12/12 02:21:06;;;;;;;32.72;12.32;;;5.40;91.70;;;;;;5045279;28;20075;-63
2021/12/12 02:24:17;;;;;;;34.17;12.88;;;5.40;91.70;;;;;;5046399;28;20162;-63
2021/12/12 02:37:36;;;;;;;27.13;11.50;;;5.40;92.00;;;;;;5047592;28;20087;-63
2021/12/12 02:40:06;;;;;;;26.67;10.45;;;5.40;91.90;;;;;;5046935;28;20568;-64
2021/12/12 02:42:33;;;;;;;29.23;10.35;;;5.40;92.00;;;;;;5045762;28;20072;-64
2021/12/12 02:45:01;;;;;;;22.42;11.18;;;5.50;91.90;;;;;;5047079;28;20029;-63
2021/12/12 02:47:34;;;;;;;27.67;10.57;;;5.40;92.10;;;;;;5047431;28;20116;-64
2021/12/12 02:50:20;;;;;;;25.80;10.32;;;5.40;92.10;;;;;;5046817;28;20056;-64
2021/12/12 02:52:50;;;;;;;26.33;11.20;;;5.50;92.10;;;;;;5045127;28;20040;-64
2021/12/12 02:55:23;;;;;;;22.80;10.32;;;5.40;92.20;;;;;;5045873;28;20037;-63
2021/12/12 02:57:52;;;;;;;22.98;10.60;;;5.50;92.20;;;;;;5047633;28;20541;-63
2021/12/12 03:00:23;;;;;;;23.45;10.02;;;5.50;92.20;;;;;;5047933;28;20044;-64
2021/12/12 03:02:56;;;;;;;19.70;10.43;;;5.50;92.30;;;;;;5051654;28;20041;-63
2021/12/12 03:05:23;;;;;;;21.20;9.90;;;5.40;92.30;;;;;;5050441;28;20070;-64
2021/12/12 03:07:49;;;;;;;25.70;9.55;;;5.40;92.50;;;;;;5051275;28;20136;-64
2021/12/12 03:10:22;;;;;;;24.90;10.82;;;5.50;92.40;;;;;;5051045;28;20405;-63
2021/12/12 03:12:47;;;;;;;22.58;10.52;;;5.50;92.40;;;;;;5051570;28;20048;-64
2021/12/12 03:15:20;;;;;;;26.35;10.80;;;5.50;92.40;;;;;;5050588;28;20049;-64
2021/12/12 03:17:49;;;;;;;25.85;10.40;;;5.60;92.30;;;;;;5051092;28;20060;-63
2021/12/12 03:20:26;;;;;;;28.30;11.13;;;5.50;92.40;;;;;;5049442;28;20444;-63
2021/12/12 03:22:59;;;;;;;16.90;9.80;;;5.60;92.60;;;;;;5049711;28;20052;-63
2021/12/12 03:25:26;;;;;;;22.27;10.07;;;5.60;92.40;;;;;;5048723;28;20049;-63
2021/12/12 03:27:52;;;;;;;17.05;9.00;;;5.60;92.40;;;;;;5048874;28;20052;-63
2021/12/12 03:30:19;;;;;;;19.08;9.07;;;5.60;92.50;;;;;;5050041;28;20037;-63
2021/12/12 03:32:45;;;;;;;14.88;9.73;;;5.60;92.50;;;;;;5051100;28;20041;-63
2021/12/12 03:35:11;;;;;;;15.32;9.85;;;5.60;92.40;;;;;;5050773;28;20072;-63
2021/12/12 03:37:39;;;;;;;16.85;8.02;;;5.60;92.50;;;;;;5049935;28;20033;-63
2021/12/12 03:40:14;;;;;;;20.65;9.00;;;5.60;92.40;;;;;;5050564;28;20094;-63
2021/12/12 03:42:41;;;;;;;15.07;9.40;;;5.70;92.50;;;;;;5050727;28;20045;-63
2021/12/12 03:45:08;;;;;;;16.30;8.25;;;5.60;92.50;;;;;;5048785;28;20052;-63
2021/12/12 03:47:42;;;;;;;16.77;8.63;;;5.60;92.60;;;;;;5050818;28;20080;-63
2021/12/12 03:50:28;;;;;;;15.25;8.25;;;5.70;92.70;;;;;;5049423;28;20124;-63
2021/12/12 03:52:55;;;;;;;13.95;7.63;;;5.70;92.70;;;;;;5047888;28;20083;-63
2021/12/12 03:55:23;;;;;;;16.17;7.60;;;5.60;92.80;;;;;;5049884;28;20048;-63
2021/12/12 03:57:49;;;;;;;16.38;8.32;;;5.60;92.80;;;;;;5050434;28;20041;-63
2021/12/12 04:00:21;;;;;;;14.98;7.63;;;5.60;92.80;;;;;;5049443;28;20041;-63
2021/12/12 04:02:46;;;;;;;10.95;7.90;;;5.60;92.70;;;;;;5048807;28;20057;-63
2021/12/12 04:05:12;;;;;;;15.90;7.43;;;5.70;92.70;;;;;;5050000;28;20040;-64
2021/12/12 04:07:38;;;;;;;15.05;6.97;;;5.70;92.70;;;;;;5050174;28;20120;-64
2021/12/12 04:10:05;;;;;;;15.48;8.98;;;5.70;92.70;;;;;;5048541;28;20037;-64
2021/12/12 04:12:31;;;;;;;15.00;7.50;;;5.70;92.80;;;;;;5049813;28;20090;-63
2021/12/12 04:14:57;;;;;;;11.25;7.03;;;5.70;92.80;;;;;;5047886;28;20486;-64
2021/12/12 04:17:26;;;;;;;10.15;7.20;;;5.70;92.90;;;;;;5048590;28;20107;-64
2021/12/12 04:19:56;;;;;;;12.43;6.93;;;5.70;92.90;;;;;;5047198;28;20056;-64
2021/12/12 04:22:22;;;;;;;12.73;6.57;;;5.70;92.90;;;;;;5049417;28;20103;-64
2021/12/12 04:24:52;;;;;;;14.60;6.95;;;5.80;92.80;;;;;;5048174;28;20037;-64
2021/12/12 04:27:18;;;;;;;13.57;7.15;;;5.80;92.90;;;;;;5050209;28;20041;-63
2021/12/12 04:29:48;;;;;;;12.57;6.57;;;5.80;92.90;;;;;;5047700;28;20036;-63
2021/12/12 04:32:18;;;;;;;11.40;6.45;;;5.90;93.00;;;;;;5049010;28;21088;-65
2021/12/12 04:34:51;;;;;;;10.70;6.10;;;5.90;93.10;;;;;;5049180;28;20636;-63
2021/12/12 04:37:17;;;;;;;8.40;5.13;;;6.00;93.00;;;;;;5049163;28;20041;-63
2021/12/12 04:39:48;;;;;;;9.65;5.50;;;6.00;93.10;;;;;;5049670;28;20049;-63
2021/12/12 04:42:30;;;;;;;9.40;5.90;;;6.10;93.00;;;;;;5048699;28;20037;-63
2021/12/12 04:45:22;;;;;;;9.13;6.25;;;6.10;93.00;;;;;;5048069;28;20051;-63
2021/12/12 04:50:58;;;;;;;8.35;6.03;;;6.20;93.10;;;;;;5045808;28;20053;-63
2021/12/12 04:53:30;;;;;;;8.43;5.93;;;6.20;93.00;;;;;;5049020;28;20041;-63
2021/12/12 04:56:14;;;;;;;10.82;6.07;;;6.20;92.90;;;;;;5049230;28;20049;-63
2021/12/12 04:59:04;;;;;;;10.50;5.75;;;6.20;93.10;;;;;;5049624;28;20040;-63
2021/12/12 05:02:09;;;;;;;8.73;6.13;;;6.30;93.00;;;;;;5047332;28;20653;-63
2021/12/12 05:04:47;;;;;;;8.32;5.70;;;6.30;92.80;;;;;;5005950;28;20294;-63
2021/12/12 05:07:21;;;;;;;10.82;6.50;;;6.20;93.00;;;;;;5044224;28;20048;-63
2021/12/12 05:09:53;;;;;;;9.18;6.45;;;6.20;93.10;;;;;;5049307;28;20120;-63
2021/12/12 05:12:30;;;;;;;10.13;6.68;;;6.20;93.00;;;;;;5049213;28;20131;-63
2021/12/12 05:15:04;;;;;;;13.98;7.47;;;6.20;93.10;;;;;;5047267;28;20131;-63
2021/12/12 05:17:43;;;;;;;13.73;8.93;;;6.30;93.20;;;;;;5047994;28;20359;-63
2021/12/12 05:20:16;;;;;;;10.85;7.95;;;6.30;93.20;;;;;;5045375;28;20038;-63
2021/12/12 05:22:51;;;;;;;10.13;7.82;;;6.30;93.20;;;;;;5046455;28;20079;-63
2021/12/12 05:25:25;;;;;;;14.15;7.93;;;6.30;93.40;;;;;;5048536;28;20502;-63
2021/12/12 05:27:55;;;;;;;14.52;9.35;;;6.20;93.40;;;;;;5047663;28;20045;-63
2021/12/12 05:30:24;;;;;;;12.18;9.18;;;6.30;93.40;;;;;;5045208;28;20529;-63
2021/12/12 05:32:52;;;;;;;12.70;9.05;;;6.20;93.60;;;;;;5047865;28;20048;-63
2021/12/12 05:35:21;;;;;;;11.40;9.25;;;6.20;93.60;;;;;;5049791;28;20044;-63
2021/12/12 05:37:49;;;;;;;12.30;8.82;;;6.20;93.60;;;;;;5049013;28;20033;-64
2021/12/12 05:40:16;;;;;;;11.52;9.70;;;6.20;93.60;;;;;;5049814;28;20073;-63
2021/12/12 05:42:43;;;;;;;15.00;9.57;;;6.20;93.50;;;;;;5049837;28;20040;-63
2021/12/12 05:45:10;;;;;;;17.08;9.88;;;6.20;93.60;;;;;;5049563;28;20083;-63
2021/12/12 05:47:37;;;;;;;11.05;9.35;;;6.30;93.60;;;;;;5050059;28;20076;-63
2021/12/12 05:50:06;;;;;;;15.45;10.73;;;6.30;93.50;;;;;;5049830;28;20065;-63
2021/12/12 05:52:32;;;;;;;16.02;10.85;;;6.20;93.50;;;;;;5049659;28;20045;-63
2021/12/12 05:54:58;;;;;;;13.77;10.88;;;6.20;93.60;;;;;;5048908;28;20041;-63
2021/12/12 05:57:26;;;;;;;15.38;11.38;;;6.30;93.60;;;;;;5039511;28;20076;-63
2021/12/12 05:59:54;;;;;;;14.90;11.27;;;6.30;93.70;;;;;;5049609;28;20052;-64
2021/12/12 06:02:22;;;;;;;15.00;11.25;;;6.20;93.80;;;;;;5048596;28;20397;-63
2021/12/12 06:04:48;;;;;;;14.70;11.05;;;6.30;93.90;;;;;;5049825;28;20579;-63
2021/12/12 06:07:18;;;;;;;15.73;11.98;;;6.30;93.80;;;;;;5049148;28;20389;-64
2021/12/12 06:09:45;;;;;;;14.85;11.10;;;6.30;93.70;;;;;;5047617;28;20077;-64
2021/12/12 06:12:12;;;;;;;15.30;12.40;;;6.30;93.60;;;;;;5048148;28;20440;-64
2021/12/12 06:14:38;;;;;;;17.95;12.85;;;6.40;93.60;;;;;;5049334;28;20041;-64
2021/12/12 06:17:08;;;;;;;23.85;13.20;;;6.30;93.60;;;;;;5049524;28;20079;-64
2021/12/12 06:19:34;;;;;;;16.63;12.85;;;6.40;93.60;;;;;;5048472;28;20053;-64
2021/12/12 06:22:02;;;;;;;20.55;13.52;;;6.30;93.60;;;;;;5029134;28;20042;-64
2021/12/12 06:24:29;;;;;;;17.38;12.73;;;6.30;93.60;;;;;;5029692;28;20050;-63
2021/12/12 06:27:02;;;;;;;19.98;13.82;;;6.30;93.70;;;;;;5036075;28;20037;-64
2021/12/12 06:29:27;;;;;;;22.55;14.30;;;6.30;93.80;;;;;;5049029;28;20049;-64
2021/12/12 06:31:53;;;;;;;20.38;13.88;;;6.30;93.70;;;;;;5048778;28;20049;-64
2021/12/12 06:34:19;;;;;;;20.20;14.27;;;6.40;93.70;;;;;;5048242;28;20572;-64
2021/12/12 06:36:48;;;;;;;18.88;13.68;;;6.40;93.70;;;;;;5042782;28;20049;-64
2021/12/12 06:39:14;;;;;;;18.95;13.55;;;6.30;93.70;;;;;;5047769;28;20102;-64
2021/12/12 06:41:41;;;;;;;20.55;14.20;;;6.40;93.60;;;;;;5048690;28;20124;-64
2021/12/12 06:44:09;;;;;;;17.65;13.80;;;6.30;93.60;;;;;;5049133;28;20047;-63
2021/12/12 06:46:37;;;;;;;16.65;12.95;;;6.40;93.60;;;;;;5046566;28;20495;-64
2021/12/12 06:49:06;;;;;;;19.25;14.25;;;6.40;93.60;;;;;;5048999;28;20037;-63
2021/12/12 06:51:43;;;;;;;22.98;13.75;;;6.40;93.60;;;;;;5042497;28;20513;-64
2021/12/12 06:54:09;;;;;;;19.70;13.73;;;6.40;93.80;;;;;;5041471;28;20053;-64
2021/12/12 06:56:36;;;;;;;22.40;15.48;;;6.30;93.80;;;;;;5047223;28;20045;-63
2021/12/12 06:59:04;;;;;;;29.60;15.25;;;6.40;93.80;;;;;;5048710;28;20049;-64
2021/12/12 07:01:32;;;;;;;21.27;14.65;;;6.30;93.80;;;;;;5047740;28;20064;-64
2021/12/12 07:03:59;;;;;;;22.33;15.70;;;6.40;93.90;;;;;;5048826;28;20053;-64
2021/12/12 07:06:28;;;;;;;23.65;15.55;;;6.40;93.80;;;;;;5047048;28;20060;-64
2021/12/12 07:08:58;;;;;;;25.58;15.82;;;6.30;94.00;;;;;;5048552;28;20056;-64
2021/12/12 07:11:26;;;;;;;24.38;15.95;;;6.40;94.00;;;;;;5047752;28;20063;-64
2021/12/12 07:13:52;;;;;;;27.90;16.10;;;6.40;94.10;;;;;;5046727;28;20076;-64
2021/12/12 07:16:20;;;;;;;27.90;15.27;;;6.40;94.00;;;;;;5047355;28;20114;-64
2021/12/12 07:18:46;;;;;;;24.38;15.88;;;6.40;94.10;;;;;;5046621;28;20040;-64
2021/12/12 07:21:15;;;;;;;31.48;17.40;;;6.40;94.10;;;;;;5042421;28;20056;-64
2021/12/12 07:23:42;;;;;;;32.00;17.10;;;6.40;94.00;;;;;;5047034;28;20099;-63
2021/12/12 07:26:12;;;;;;;34.22;18.98;;;6.40;94.00;;;;;;5046541;28;20037;-64
2021/12/12 07:28:39;;;;;;;35.40;18.60;;;6.40;94.10;;;;;;5047636;28;20049;-64
2021/12/12 07:31:07;;;;;;;38.83;18.20;;;6.50;94.10;;;;;;5047545;28;20060;-64
2021/12/12 07:33:34;;;;;;;32.47;17.50;;;6.50;94.00;;;;;;5046606;28;20053;-64
2021/12/12 07:36:08;;;;;;;36.75;18.35;;;6.50;94.00;;;;;;5046791;28;20044;-66
2021/12/12 07:38:35;;;;;;;31.23;16.92;;;6.50;94.00;;;;;;5046755;28;20091;-64
2021/12/12 07:41:04;;;;;;;28.20;16.75;;;6.50;94.00;;;;;;5046528;28;20485;-64
2021/12/12 07:43:31;;;;;;;27.63;16.55;;;6.50;94.00;;;;;;5046267;28;20107;-63
2021/12/12 07:45:57;;;;;;;31.25;17.63;;;6.50;94.10;;;;;;5047323;28;20175;-63
2021/12/12 07:48:23;;;;;;;25.02;16.70;;;6.50;94.30;;;;;;5050884;28;20048;-64
2021/12/12 07:50:50;;;;;;;22.85;14.32;;;6.60;94.20;;;;;;5051516;28;20037;-65
2021/12/12 07:53:17;;;;;;;30.90;16.85;;;6.60;94.40;;;;;;5050042;28;20071;-66
2021/12/12 07:55:44;;;;;;;24.05;15.90;;;6.70;94.40;;;;;;5050904;28;20069;-66
2021/12/12 07:58:13;;;;;;;27.95;16.55;;;6.80;94.30;;;;;;5050985;28;20496;-65
2021/12/12 08:00:41;;;;;;;23.08;15.45;;;6.70;94.10;;;;;;5049965;28;20481;-65
2021/12/12 08:03:07;;;;;;;30.58;18.13;;;6.80;94.10;;;;;;5049608;28;20033;-65
2021/12/12 08:05:34;;;;;;;30.83;18.17;;;6.80;94.10;;;;;;5051025;28;20071;-65
2021/12/12 08:08:04;;;;;;;33.13;19.48;;;6.80;94.00;;;;;;5050741;28;20055;-65
2021/12/12 08:10:30;;;;;;;32.92;18.70;;;6.80;94.20;;;;;;5050810;28;20501;-65
2021/12/12 08:12:57;;;;;;;33.38;19.45;;;6.80;94.10;;;;;;5050996;28;20070;-65
2021/12/12 08:15:24;;;;;;;31.42;19.50;;;6.80;94.20;;;;;;5049957;28;20128;-64
2021/12/12 08:17:51;;;;;;;34.05;18.98;;;6.80;94.20;;;;;;5048763;28;20531;-64
2021/12/12 08:20:17;;;;;;;33.15;19.17;;;6.80;94.10;;;;;;5051500;28;20052;-64
2021/12/12 08:22:44;;;;;;;30.95;18.33;;;6.80;94.30;;;;;;5050777;28;20033;-69
2021/12/12 08:25:12;;;;;;;29.48;19.00;;;6.80;94.20;;;;;;5050888;28;20049;-69
2021/12/12 08:27:39;;;;;;;33.97;19.52;;;6.90;94.40;;;;;;5048657;28;20549;-69
2021/12/12 08:30:07;;;;;;;29.70;19.10;;;7.00;94.30;;;;;;5050960;28;20041;-69
2021/12/12 08:32:32;;;;;;;38.10;21.27;;;7.20;94.40;;;;;;5050415;28;20065;-69
2021/12/12 08:34:59;;;;;;;35.30;21.05;;;7.30;94.30;;;;;;5041494;28;20179;-69
2021/12/12 08:37:29;;;;;;;31.13;20.15;;;7.40;93.90;;;;;;5040669;28;20049;-69
2021/12/12 08:39:56;;;;;;;30.02;19.10;;;7.60;93.90;;;;;;5041956;28;20056;-69
2021/12/12 08:42:26;;;;;;;23.25;17.77;;;7.70;93.40;;;;;;5050442;28;20067;-69
2021/12/12 08:44:56;;;;;;;26.73;20.30;;;7.90;93.10;;;;;;5049791;28;20127;-69
2021/12/12 08:47:22;;;;;;;31.95;20.35;;;8.00;92.50;;;;;;5050687;28;20499;-69
2021/12/12 08:49:48;;;;;;;27.38;20.52;;;8.00;91.90;;;;;;5045169;28;20037;-69
2021/12/12 08:52:19;;;;;;;31.08;21.05;;;8.00;91.90;;;;;;5044592;28;20037;-69
2021/12/12 08:54:47;;;;;;;27.95;20.60;;;7.90;91.80;;;;;;5048237;28;20060;-69
2021/12/12 08:57:32;;;;;;;28.92;21.88;;;7.90;91.80;;;;;;5042345;28;20068;-69
2021/12/12 09:00:04;;;;;;;32.28;21.65;;;7.70;91.90;;;;;;5043698;28;20052;-68
2021/12/12 09:02:30;;;;;;;29.73;21.20;;;7.70;92.00;;;;;;5050336;28;20045;-68
2021/12/12 09:05:01;;;;;;;32.80;21.63;;;7.90;92.10;;;;;;5050050;28;20051;-68
2021/12/12 09:07:37;;;;;;;29.17;21.80;;;8.00;91.70;;;;;;5050206;28;20524;-68
2021/12/12 09:10:10;;;;;;;30.55;20.70;;;8.10;91.50;;;;;;5050068;28;20071;-68
2021/12/12 09:12:49;;;;;;;30.65;20.85;;;8.00;91.60;;;;;;5049899;28;20049;-68
2021/12/12 09:15:17;;;;;;;29.20;19.45;;;8.20;91.50;;;;;;5050729;28;20045;-68
2021/12/12 09:17:53;;;;;;;33.63;21.23;;;8.20;91.30;;;;;;5049212;28;20128;-69
2021/12/12 09:20:23;;;;;;;25.83;19.60;;;8.30;91.30;;;;;;5050047;28;20517;-67
2021/12/12 09:23:32;;;;;;;29.05;21.55;;;8.30;91.10;;;;;;5049092;28;20048;-67
2021/12/12 09:26:02;;;;;;;30.92;21.20;;;8.40;91.10;;;;;;5049521;28;20094;-67
2021/12/12 09:28:48;;;;;;;27.92;20.05;;;8.40;91.00;;;;;;5049266;28;20083;-67
2021/12/12 09:31:32;;;;;;;27.67;19.38;;;8.50;90.70;;;;;;5034584;28;20072;-67
2021/12/12 09:34:12;;;;;;;29.63;19.70;;;8.60;90.50;;;;;;5046873;28;20052;-67
2021/12/12 09:36:44;;;;;;;27.48;21.60;;;8.80;90.20;;;;;;5049165;28;20494;-68
2021/12/12 09:39:21;;;;;;;;;;;8.80;90.00;;;;;;5050133;28;20053;-67
2021/12/12 09:42:29;;;;;;;27.83;21.25;;;8.70;89.40;;;;;;5046744;28;19928;-67
2021/12/12 09:45:30;;;;;;;29.15;19.38;;;8.80;90.30;;;;;;5030213;28;20132;-67
2021/12/12 09:51:17;;;;;;;24.35;18.10;;;8.80;90.20;;;;;;5049969;28;20049;-68
2021/12/12 09:54:01;;;;;;;24.17;18.05;;;8.90;90.40;;;;;;5049088;28;20110;-67
2021/12/12 09:56:58;;;;;;;23.17;18.88;;;8.90;90.30;;;;;;5049216;28;20045;-67
2021/12/12 10:00:00;;;;;;;19.08;15.27;;;8.90;90.30;;;;;;5046925;28;20143;-67
2021/12/12 10:02:45;;;;;;;20.50;16.27;;;8.90;90.50;;;;;;5049338;28;20072;-67
2021/12/12 10:05:30;;;;;;;21.45;15.57;;;9.00;90.60;;;;;;5049342;28;20044;-67
2021/12/12 10:08:01;;;;;;;21.10;16.55;;;9.10;90.60;;;;;;5048838;28;20393;-67
2021/12/12 10:10:33;;;;;;;21.83;15.00;;;9.20;90.50;;;;;;5045410;28;20067;-67
2021/12/12 10:13:08;;;;;;;18.15;14.50;;;9.20;90.30;;;;;;5045700;28;20426;-67
2021/12/12 10:15:43;;;;;;;19.30;14.50;;;9.20;90.20;;;;;;5045736;28;20501;-67
2021/12/12 10:18:18;;;;;;;18.27;14.68;;;9.10;90.60;;;;;;5042434;28;20124;-67
2021/12/12 10:21:17;;;;;;;18.45;13.98;;;9.20;90.50;;;;;;5049087;28;20079;-67
2021/12/12 10:24:26;;;;;;;19.95;14.77;;;9.20;90.70;;;;;;5040103;28;20456;-67
2021/12/12 10:27:17;;;;;;;19.17;14.23;;;9.40;90.50;;;;;;5044209;28;20103;-67
2021/12/12 10:30:01;;;;;;;18.92;14.57;;;9.50;90.30;;;;;;5048902;28;20045;-67
2021/12/12 10:32:35;;;;;;;16.88;13.75;;;9.40;90.20;;;;;;5043270;28;20045;-67
2021/12/12 10:35:13;;;;;;;19.15;15.23;;;9.40;90.40;;;;;;5044963;28;20053;-68
2021/12/12 10:37:56;;;;;;;20.10;15.13;;;9.30;90.40;;;;;;5046803;28;20048;-67
2021/12/12 10:40:33;;;;;;;20.83;14.88;;;9.30;90.80;;;;;;5048429;28;20155;-64
2021/12/12 10:43:05;;;;;;;22.35;16.33;;;9.20;90.70;;;;;;5046736;28;20045;-64
2021/12/12 10:45:46;;;;;;;23.25;15.73;;;9.10;90.80;;;;;;5046618;28;20081;-64
2021/12/12 10:48:19;;;;;;;19.40;13.85;;;8.90;91.00;;;;;;5038414;28;20049;-65
2021/12/12 10:51:03;;;;;;;20.20;14.32;;;8.80;91.30;;;;;;5037767;28;20490;-64
2021/12/12 10:53:40;;;;;;;20.23;12.57;;;8.70;91.50;;;;;;5039762;28;20045;-64
2021/12/12 10:56:38;;;;;;;20.58;13.65;;;8.60;92.10;;;;;;5040166;28;20348;-65
2021/12/12 10:59:22;;;;;;;19.38;13.63;;;8.60;92.20;;;;;;5040867;28;20083;-63
2021/12/12 11:01:51;;;;;;;18.40;12.38;;;8.50;92.60;;;;;;5045669;28;20402;-64
2021/12/12 11:04:45;;;;;;;16.15;11.60;;;8.50;92.50;;;;;;5048287;28;20084;-63
2021/12/12 11:07:23;;;;;;;19.30;12.25;;;8.40;92.70;;;;;;5048127;28;20053;-65
2021/12/12 11:10:13;;;;;;;13.35;11.65;;;8.40;93.00;;;;;;5042972;28;20128;-62
2021/12/12 11:12:52;;;;;;;17.58;11.70;;;8.50;93.20;;;;;;5044917;28;20052;-67
2021/12/12 11:15:20;;;;;;;18.98;12.23;;;8.60;93.20;;;;;;5029374;28;20155;-67
2021/12/12 11:17:59;;;;;;;17.40;12.13;;;8.60;93.30;;;;;;5047372;28;20048;-67
2021/12/12 11:20:34;;;;;;;17.20;12.80;;;8.60;93.30;;;;;;5047787;28;20501;-67
2021/12/12 11:23:08;;;;;;;17.75;12.10;;;8.50;93.40;;;;;;5052351;28;20045;-67
2021/12/12 11:25:33;;;;;;;25.70;13.50;;;8.50;93.60;;;;;;5052352;28;20099;-68
2021/12/12 11:28:06;;;;;;;21.55;12.32;;;8.50;93.60;;;;;;5051685;28;20045;-67
2021/12/12 11:30:39;;;;;;;19.10;12.40;;;8.50;93.60;;;;;;5050420;28;20171;-66
2021/12/12 11:33:07;;;;;;;19.85;13.70;;;8.50;93.70;;;;;;5044567;28;20049;-67
2021/12/12 11:35:34;;;;;;;20.95;14.10;;;8.50;93.60;;;;;;5031088;28;20494;-67
2021/12/12 11:38:02;;;;;;;24.90;14.32;;;8.50;93.50;;;;;;5032410;28;20056;-68
2021/12/12 11:40:46;;;;;;;20.95;13.93;;;8.50;93.50;;;;;;5032610;28;20084;-67
2021/12/12 11:43:39;;;;;;;23.10;13.93;;;8.50;93.60;;;;;;5051091;28;20045;-67
2021/12/12 11:46:28;;;;;;;19.50;13.73;;;8.50;93.60;;;;;;5051552;28;20041;-65
2021/12/12 11:49:22;;;;;;;18.65;13.45;;;8.50;93.70;;;;;;5051189;28;20101;-65
2021/12/12 11:52:07;;;;;;;20.45;13.63;;;8.60;93.60;;;;;;5039147;28;20127;-65
2021/12/12 11:54:38;;;;;;;20.77;14.82;;;8.60;93.60;;;;;;5051526;28;20075;-66
2021/12/12 11:57:14;;;;;;;21.55;14.82;;;8.50;93.70;;;;;;5050673;28;20482;-65
2021/12/12 12:00:04;;;;;;;25.10;13.43;;;8.50;93.80;;;;;;5050689;28;20403;-65
2021/12/12 12:02:41;;;;;;;18.27;12.27;;;8.60;93.80;;;;;;5050514;28;20033;-65
2021/12/12 12:05:49;;;;;;;25.35;14.38;;;8.60;93.80;;;;;;5033609;28;20174;-65
2021/12/12 12:08:56;;;;;;;29.55;13.63;;;8.60;93.90;;;;;;5027055;28;20049;-66
2021/12/12 12:11:46;;;;;;;17.30;12.68;;;8.60;94.10;;;;;;5030517;28;20506;-65
2021/12/12 12:14:49;;;;;;;17.90;11.88;;;8.60;94.20;;;;;;5027687;28;20045;-65
2021/12/12 12:17:30;;;;;;;21.10;12.30;;;8.70;94.20;;;;;;5040088;28;20127;-65
2021/12/12 12:20:07;;;;;;;22.50;11.48;;;8.70;94.30;;;;;;5044665;28;20088;-65
2021/12/12 12:23:31;;;;;;;17.40;10.90;;;8.70;94.40;;;;;;5044555;28;20050;-66
2021/12/12 12:28:57;;;;;;;31.88;11.98;;;8.90;94.50;;;;;;5047790;28;20041;-66
2021/12/12 12:31:36;;;;;;;22.20;10.27;;;8.80;94.60;;;;;;5041241;28;20048;-65
2021/12/12 12:34:21;;;;;;;20.05;10.65;;;8.90;94.70;;;;;;5032866;28;20136;-65
2021/12/12 12:37:24;;;;;;;16.42;9.30;;;8.90;94.70;;;;;;5045292;28;20701;-65
2021/12/12 12:40:28;;;;;;;18.00;8.93;;;8.90;94.80;;;;;;5041793;28;20049;-65
2021/12/12 12:43:31;;;;;;;19.77;8.98;;;9.10;94.90;;;;;;5050862;28;20779;-65
2021/12/12 12:46:30;;;;;;;25.73;9.55;;;9.10;95.00;;;;;;5045146;28;20048;-65
2021/12/12 12:49:33;;;;;;;13.63;8.52;;;9.10;95.00;;;;;;5032072;28;20037;-65
2021/12/12 12:52:36;;;;;;;17.02;8.32;;;9.10;95.00;;;;;;5043946;28;20051;-65
2021/12/12 12:55:33;;;;;;;29.02;8.80;;;9.10;95.10;;;;;;5049044;28;20594;-65
2021/12/12 12:58:11;;;;;;;29.27;8.75;;;9.10;95.00;;;;;;5043072;28;20095;-65
2021/12/12 13:00:39;;;;;;;48.38;9.02;;;9.10;95.00;;;;;;5049534;28;20116;-65
2021/12/12 13:03:07;;;;;;;38.97;8.55;;;9.10;94.90;;;;;;5050948;28;20123;-66
2021/12/12 13:06:01;;;;;;;20.63;7.82;;;9.10;94.90;;;;;;5049649;28;20044;-65
2021/12/12 13:09:03;;;;;;;38.72;8.38;;;9.20;94.90;;;;;;5036663;28;20041;-65
2021/12/12 13:12:20;;;;;;;36.58;8.23;;;9.20;95.00;;;;;;5030535;28;20040;-65
2021/12/12 13:15:04;;;;;;;57.85;9.05;;;9.20;95.00;;;;;;5012747;28;20047;-65
2021/12/12 13:17:54;;;;;;;27.00;7.30;;;9.20;95.00;;;;;;5050257;28;20056;-65
2021/12/12 13:20:42;;;;;;;87.35;10.85;;;9.20;95.10;;;;;;5048681;28;20036;-65
2021/12/12 13:23:38;;;;;;;40.47;8.68;;;9.20;95.10;;;;;;5050044;28;20053;-65
2021/12/12 13:26:14;;;;;;;39.35;8.43;;;9.30;95.10;;;;;;5048806;28;20041;-66
2021/12/12 13:29:15;;;;;;;35.22;8.20;;;9.20;95.10;;;;;;5049756;28;20128;-65
2021/12/12 13:32:02;;;;;;;52.72;8.70;;;9.30;95.00;;;;;;5031933;28;20049;-65
2021/12/12 13:34:41;;;;;;;16.90;7.50;;;9.30;95.10;;;;;;5049213;28;20131;-65
2021/12/12 13:37:25;;;;;;;12.60;7.03;;;9.30;95.30;;;;;;5050001;28;20103;-65
2021/12/12 13:40:13;;;;;;;28.15;8.13;;;9.40;95.20;;;;;;5047462;28;20525;-65